createdAt,value
2022-08-25T00:01:14.250Z,12.63
2022-08-25T00:04:07.510Z,15.82
2022-08-25T00:07:02.750Z,10.18
2022-08-25T00:09:52.347Z,11.50
2022-08-25T00:12:41.527Z,15.70
2022-08-25T00:15:32.508Z,12.43
2022-08-25T00:18:21.914Z,13.35
2022-08-25T00:21:11.157Z,12.05
2022-08-25T00:24:04.412Z,12.15
2022-08-25T00:26:57.625Z,12.85
2022-08-25T00:29:46.854Z,17.52
2022-08-25T00:32:36.122Z,14.57
2022-08-25T00:35:27.001Z,18.52
2022-08-25T00:38:16.650Z,12.40
2022-08-25T00:41:07.471Z,13.98
2022-08-25T00:44:03.814Z,12.95
2022-08-25T00:46:57.982Z,14.93
2022-08-25T00:49:52.886Z,14.35
2022-08-25T00:52:49.164Z,15.07
2022-08-25T00:55:42.190Z,13.75
2022-08-25T00:58:37.417Z,11.25
2022-08-25T01:01:27.668Z,13.82
2022-08-25T01:04:17.692Z,12.20
2022-08-25T01:07:07.607Z,14.43
2022-08-25T01:10:08.554Z,12.70
2022-08-25T01:13:16.570Z,13.07
2022-08-25T01:16:08.051Z,12.05
2022-08-25T01:19:00.668Z,14.68
2022-08-25T01:21:54.429Z,14.07
2022-08-25T01:24:51.216Z,11.82
2022-08-25T01:27:40.677Z,11.50
2022-08-25T01:30:29.926Z,12.77
2022-08-25T01:33:20.107Z,13.05
2022-08-25T01:36:09.680Z,13.30
2022-08-25T01:39:00.678Z,12.52
2022-08-25T01:42:14.201Z,12.85
2022-08-25T01:45:03.552Z,15.02
2022-08-25T01:47:53.259Z,10.90
2022-08-25T01:50:44.257Z,11.05
2022-08-25T01:53:33.892Z,11.65
2022-08-25T01:56:24.502Z,12.65
2022-08-25T01:59:23.983Z,13.48
2022-08-25T02:02:13.782Z,12.50
2022-08-25T02:05:03.138Z,11.07
2022-08-25T02:07:53.833Z,13.30
2022-08-25T02:10:43.115Z,13.32
2022-08-25T02:13:34.528Z,12.13
2022-08-25T02:16:29.795Z,10.90
2022-08-25T02:19:21.708Z,12.52
2022-08-25T02:22:11.421Z,11.85
2022-08-25T02:25:00.690Z,12.95
2022-08-25T02:27:50.032Z,12.80
2022-08-25T02:30:43.588Z,13.75
2022-08-25T02:33:33.074Z,10.32
2022-08-25T02:36:23.289Z,12.93
2022-08-25T02:39:13.755Z,10.60
2022-08-25T02:42:03.402Z,13.82
2022-08-25T02:44:53.895Z,12.35
2022-08-25T02:47:44.432Z,12.65
2022-08-25T02:50:34.227Z,14.05
2022-08-25T02:53:23.742Z,13.63
2022-08-25T02:56:14.876Z,13.13
2022-08-25T02:59:04.389Z,18.10
2022-08-25T03:01:53.764Z,12.38
2022-08-25T03:04:45.241Z,11.93
2022-08-25T03:07:35.485Z,11.45
2022-08-25T03:10:25.152Z,12.80
2022-08-25T03:13:14.476Z,11.68
2022-08-25T03:16:10.838Z,11.43
2022-08-25T03:19:01.211Z,12.90
2022-08-25T03:21:55.988Z,13.60
2022-08-25T03:24:45.946Z,12.02
2022-08-25T03:27:34.609Z,14.48
2022-08-25T03:30:23.935Z,13.35
2022-08-25T03:33:13.202Z,12.07
2022-08-25T03:36:02.992Z,12.23
2022-08-25T03:38:54.390Z,12.73
2022-08-25T03:41:43.523Z,12.40
2022-08-25T03:44:33.558Z,12.27
2022-08-25T03:47:24.874Z,12.15
2022-08-25T03:50:14.692Z,10.57
2022-08-25T03:53:04.474Z,18.52
2022-08-25T03:55:55.040Z,18.40
2022-08-25T03:58:44.538Z,14.18
2022-08-25T04:01:34.058Z,13.38
2022-08-25T04:04:23.534Z,15.75
2022-08-25T04:07:12.845Z,17.98
2022-08-25T04:10:02.262Z,11.52
2022-08-25T04:12:53.038Z,14.10
2022-08-25T04:15:44.603Z,16.15
2022-08-25T04:18:34.372Z,12.73
2022-08-25T04:21:25.431Z,16.83
2022-08-25T04:24:16.010Z,12.65
2022-08-25T04:27:05.637Z,13.80
2022-08-25T04:29:57.646Z,15.15
2022-08-25T04:32:48.307Z,12.57
2022-08-25T04:35:37.624Z,15.70
2022-08-25T04:38:27.900Z,12.27
2022-08-25T04:41:20.807Z,13.82
2022-08-25T04:47:02.441Z,13.48
2022-08-25T04:49:51.652Z,14.88
2022-08-25T04:52:40.920Z,17.50
2022-08-25T04:55:30.232Z,16.20
2022-08-25T04:58:19.345Z,13.77
2022-08-25T05:01:12.931Z,16.05
2022-08-25T05:04:07.445Z,14.57
2022-08-25T05:06:57.006Z,12.57
2022-08-25T05:09:46.205Z,15.07
2022-08-25T05:12:36.222Z,13.82
2022-08-25T05:15:45.562Z,17.52
2022-08-25T05:18:37.441Z,15.55
2022-08-25T05:21:29.669Z,18.20
2022-08-25T05:24:18.856Z,17.70
2022-08-25T05:27:07.964Z,16.00
2022-08-25T05:29:57.142Z,17.02
2022-08-25T05:32:47.886Z,28.30
2022-08-25T05:35:37.226Z,23.95
2022-08-25T05:38:28.945Z,22.33
2022-08-25T05:41:21.479Z,13.40
2022-08-25T05:44:12.637Z,16.17
2022-08-25T05:47:01.860Z,12.85
2022-08-25T05:49:51.027Z,16.23
2022-08-25T05:52:40.553Z,16.27
2022-08-25T05:55:31.101Z,17.85
2022-08-25T05:58:20.359Z,21.75
2022-08-25T06:01:27.658Z,14.63
2022-08-25T06:04:18.172Z,17.80
2022-08-25T06:07:07.371Z,18.48
2022-08-25T06:09:56.686Z,18.75
2022-08-25T06:12:48.146Z,23.05
2022-08-25T06:15:38.596Z,17.92
2022-08-25T06:18:28.283Z,16.73
2022-08-25T06:21:18.626Z,23.23
2022-08-25T06:24:12.081Z,22.67
2022-08-25T06:27:03.968Z,26.33
2022-08-25T06:29:56.011Z,21.25
2022-08-25T06:32:48.117Z,19.75
2022-08-25T06:35:38.165Z,27.87
2022-08-25T06:38:28.465Z,25.55
2022-08-25T06:41:17.723Z,24.77
2022-08-25T06:44:07.671Z,31.50
2022-08-25T06:46:58.523Z,19.15
2022-08-25T06:49:49.097Z,37.03
2022-08-25T06:52:38.356Z,26.08
2022-08-25T06:55:27.567Z,19.95
2022-08-25T06:58:16.702Z,25.65
2022-08-25T07:01:14.951Z,20.55
2022-08-25T07:04:13.149Z,16.83
2022-08-25T07:07:03.664Z,19.95
2022-08-25T07:09:52.988Z,20.38
2022-08-25T07:12:42.380Z,21.15
2022-08-25T07:15:31.833Z,19.23
2022-08-25T07:18:21.224Z,22.77
2022-08-25T07:21:12.499Z,24.50
2022-08-25T07:24:03.419Z,18.58
2022-08-25T07:27:30.197Z,23.00
2022-08-25T07:30:20.043Z,17.30
2022-08-25T07:33:10.066Z,19.42
2022-08-25T07:35:58.937Z,21.00
2022-08-25T07:38:49.512Z,16.95
2022-08-25T07:41:42.741Z,19.42
2022-08-25T07:44:32.255Z,14.05
2022-08-25T07:47:23.094Z,15.55
2022-08-25T07:50:15.281Z,18.05
2022-08-25T07:53:04.499Z,21.13
2022-08-25T07:55:55.143Z,18.15
2022-08-25T07:58:45.172Z,19.95
2022-08-25T08:01:34.755Z,20.30
2022-08-25T08:04:27.761Z,21.10
2022-08-25T08:07:19.604Z,16.58
2022-08-25T08:10:42.416Z,17.80
2022-08-25T08:13:23.602Z,14.70
2022-08-25T08:16:15.043Z,21.65
2022-08-25T08:19:06.062Z,16.43
2022-08-25T08:21:55.279Z,22.05
2022-08-25T08:24:54.554Z,35.72
2022-08-25T08:27:45.918Z,16.65
2022-08-25T08:30:36.847Z,14.48
2022-08-25T08:33:26.545Z,13.93
2022-08-25T08:36:17.175Z,13.13
2022-08-25T08:39:06.754Z,12.68
2022-08-25T08:42:23.329Z,13.77
2022-08-25T08:45:28.299Z,12.27
2022-08-25T08:48:45.452Z,14.75
2022-08-25T08:51:49.033Z,16.30
2022-08-25T08:54:43.550Z,12.43
2022-08-25T08:57:50.554Z,13.25
2022-08-25T09:00:51.897Z,17.40
2022-08-25T09:03:55.188Z,12.98
2022-08-25T09:06:49.285Z,11.10
2022-08-25T09:09:42.678Z,13.30
2022-08-25T09:12:41.385Z,11.85
2022-08-25T09:16:07.229Z,10.03
2022-08-25T09:19:21.386Z,11.20
2022-08-25T09:22:35.567Z,11.70
2022-08-25T09:25:53.245Z,9.95
2022-08-25T09:28:51.527Z,10.82
2022-08-25T09:31:43.777Z,9.57
2022-08-25T09:34:36.786Z,14.82
2022-08-25T09:37:26.091Z,9.23
2022-08-25T09:40:17.778Z,9.60
2022-08-25T09:43:23.481Z,8.80
2022-08-25T09:46:16.201Z,8.52
2022-08-25T09:49:16.697Z,8.98
2022-08-25T09:52:41.306Z,9.85
2022-08-25T09:55:35.301Z,9.13
2022-08-25T09:58:26.405Z,8.38
2022-08-25T10:01:20.654Z,11.25
2022-08-25T10:04:18.900Z,11.32
2022-08-25T10:07:28.319Z,8.85
2022-08-25T10:10:23.628Z,7.72
2022-08-25T10:13:22.700Z,10.40
2022-08-25T10:16:24.883Z,8.02
2022-08-25T10:19:26.246Z,9.05
2022-08-25T10:22:32.169Z,7.53
2022-08-25T10:25:32.224Z,10.32
2022-08-25T10:28:36.926Z,9.27
2022-08-25T10:31:37.531Z,11.68
2022-08-25T10:34:51.629Z,8.10
2022-08-25T10:38:02.131Z,9.70
2022-08-25T10:41:00.815Z,8.55
2022-08-25T10:44:01.940Z,10.25
2022-08-25T10:47:03.831Z,8.18
2022-08-25T10:50:02.708Z,7.57
2022-08-25T10:53:24.228Z,7.78
2022-08-25T10:56:20.927Z,8.02
2022-08-25T10:59:42.600Z,7.40
2022-08-25T11:03:11.780Z,8.00
2022-08-25T11:06:07.572Z,7.70
2022-08-25T11:09:06.255Z,8.00
2022-08-25T11:12:01.399Z,8.05
2022-08-25T11:14:57.365Z,13.43
2022-08-25T11:17:56.461Z,7.90
2022-08-25T11:21:03.681Z,8.35
2022-08-25T11:24:05.882Z,10.02
2022-08-25T11:27:00.308Z,9.20
2022-08-25T11:30:02.962Z,10.60
2022-08-25T11:32:57.360Z,8.60
2022-08-25T11:35:57.105Z,11.05
2022-08-25T11:39:01.681Z,7.93
2022-08-25T11:42:12.463Z,9.27
2022-08-25T11:45:18.517Z,8.05
2022-08-25T11:48:23.705Z,8.55
2022-08-25T11:51:31.462Z,9.85
2022-08-25T11:54:29.707Z,9.07
2022-08-25T11:57:26.848Z,8.43
2022-08-25T12:00:42.618Z,8.88
2022-08-25T12:04:13.404Z,8.52
2022-08-25T12:07:27.282Z,8.82
2022-08-25T12:10:21.616Z,9.32
2022-08-25T12:13:45.180Z,9.07
2022-08-25T12:16:43.790Z,10.05
2022-08-25T12:19:55.556Z,8.25
2022-08-25T12:22:56.942Z,9.27
2022-08-25T12:25:54.749Z,10.02
2022-08-25T12:29:02.333Z,8.65
2022-08-25T12:32:19.006Z,9.05
2022-08-25T12:35:31.469Z,8.88
2022-08-25T12:38:35.062Z,8.75
2022-08-25T12:41:30.948Z,11.20
2022-08-25T12:44:41.665Z,8.35
2022-08-25T12:47:33.777Z,11.23
2022-08-25T12:50:41.662Z,8.35
2022-08-25T12:53:40.010Z,9.27
2022-08-25T12:56:39.476Z,9.77
2022-08-25T12:59:39.266Z,10.10
2022-08-25T13:03:16.760Z,8.02
2022-08-25T13:06:28.078Z,9.48
2022-08-25T13:10:07.462Z,8.85
2022-08-25T13:13:07.228Z,9.95
2022-08-25T13:16:04.867Z,8.15
2022-08-25T13:18:59.000Z,8.80
2022-08-25T13:21:50.710Z,8.57
2022-08-25T13:24:47.599Z,8.20
2022-08-25T13:27:41.711Z,8.20
2022-08-25T13:30:37.135Z,8.10
2022-08-25T13:33:27.901Z,7.78
2022-08-25T13:36:36.309Z,6.80
2022-08-25T13:39:52.683Z,7.95
2022-08-25T13:42:39.207Z,8.75
2022-08-25T13:45:41.144Z,7.07
2022-08-25T13:48:39.994Z,7.78
2022-08-25T13:51:51.189Z,8.40
2022-08-25T13:54:44.675Z,8.38
2022-08-25T13:57:35.240Z,9.57
2022-08-25T14:00:34.540Z,7.28
2022-08-25T14:03:37.326Z,7.93
2022-08-25T14:06:28.699Z,8.13
2022-08-25T14:09:26.648Z,10.40
2022-08-25T14:12:35.371Z,10.35
2022-08-25T14:15:33.907Z,9.57
2022-08-25T14:18:32.377Z,10.15
2022-08-25T14:21:28.145Z,10.20
2022-08-25T14:24:22.620Z,9.85
2022-08-25T14:27:12.061Z,7.40
2022-08-25T14:30:01.346Z,8.70
2022-08-25T14:32:51.017Z,8.40
2022-08-25T14:35:41.883Z,11.13
2022-08-25T14:38:33.508Z,7.47
2022-08-25T14:41:24.772Z,8.15
2022-08-25T14:44:15.405Z,8.48
2022-08-25T14:47:06.480Z,7.60
2022-08-25T14:49:55.783Z,8.80
2022-08-25T14:52:45.778Z,8.68
2022-08-25T14:55:36.473Z,6.53
2022-08-25T14:58:26.719Z,8.90
2022-08-25T15:01:20.673Z,7.70
2022-08-25T15:04:23.915Z,6.88
2022-08-25T15:07:27.970Z,10.82
2022-08-25T15:10:17.142Z,8.15
2022-08-25T15:13:08.809Z,8.95
2022-08-25T15:15:59.525Z,9.88
2022-08-25T15:18:49.821Z,8.20
2022-08-25T15:21:39.709Z,7.85
2022-08-25T15:24:29.811Z,7.85
2022-08-25T15:27:21.898Z,7.97
2022-08-25T15:30:14.905Z,6.95
2022-08-25T15:33:04.986Z,6.85
2022-08-25T15:35:54.371Z,8.20
2022-08-25T15:38:45.630Z,6.13
2022-08-25T15:41:37.529Z,7.28
2022-08-25T15:44:29.727Z,6.35
2022-08-25T15:47:21.113Z,9.70
2022-08-25T15:50:15.926Z,10.10
2022-08-25T15:53:08.433Z,9.98
2022-08-25T15:56:00.596Z,9.93
2022-08-25T15:58:56.185Z,9.43
2022-08-25T16:01:46.412Z,10.55
2022-08-25T16:04:37.485Z,10.20
2022-08-25T16:07:26.658Z,10.32
2022-08-25T16:10:16.376Z,9.73
2022-08-25T16:13:06.976Z,11.73
2022-08-25T16:15:57.991Z,11.95
2022-08-25T16:18:47.779Z,13.23
2022-08-25T16:21:42.256Z,13.38
2022-08-25T16:24:38.572Z,11.30
2022-08-25T16:27:29.247Z,9.10
2022-08-25T16:30:27.758Z,7.78
2022-08-25T16:33:17.812Z,8.05
2022-08-25T16:36:13.068Z,9.77
2022-08-25T16:39:04.683Z,6.25
2022-08-25T16:41:59.543Z,7.25
2022-08-25T16:44:48.859Z,6.70
2022-08-25T16:47:43.343Z,6.35
2022-08-25T16:50:34.558Z,8.43
2022-08-25T16:53:42.356Z,9.73
2022-08-25T16:56:38.617Z,7.13
2022-08-25T16:59:28.409Z,6.90
2022-08-25T17:02:17.701Z,10.45
2022-08-25T17:05:12.451Z,6.30
2022-08-25T17:08:20.757Z,7.10
2022-08-25T17:11:13.999Z,5.88
2022-08-25T17:14:10.965Z,8.20
2022-08-25T17:17:00.507Z,6.90
2022-08-25T17:19:53.057Z,9.10
2022-08-25T17:22:44.325Z,7.60
2022-08-25T17:25:36.429Z,7.70
2022-08-25T17:28:31.417Z,10.65
2022-08-25T17:31:23.016Z,9.45
2022-08-25T17:34:16.426Z,10.40
2022-08-25T17:37:06.730Z,7.78
2022-08-25T17:40:02.494Z,10.50
2022-08-25T17:42:52.483Z,8.15
2022-08-25T17:45:42.423Z,7.75
2022-08-25T17:48:36.941Z,10.00
2022-08-25T17:51:26.365Z,8.93
2022-08-25T17:54:19.020Z,6.72
2022-08-25T17:57:08.224Z,9.95
2022-08-25T17:59:57.374Z,10.30
2022-08-25T18:02:47.194Z,11.88
2022-08-25T18:05:39.904Z,8.40
2022-08-25T18:08:34.972Z,7.65
2022-08-25T18:11:27.434Z,7.13
2022-08-25T18:14:20.362Z,8.70
2022-08-25T18:17:11.846Z,12.00
2022-08-25T18:20:03.582Z,12.77
2022-08-25T18:22:58.805Z,16.63
2022-08-25T18:25:50.965Z,12.88
2022-08-25T18:28:40.232Z,13.02
2022-08-25T18:31:33.459Z,13.25
2022-08-25T18:34:24.007Z,17.83
2022-08-25T18:37:30.606Z,13.77
2022-08-25T18:40:24.679Z,11.15
2022-08-25T18:43:15.686Z,12.85
2022-08-25T18:46:05.999Z,12.48
2022-08-25T18:48:57.452Z,10.15
2022-08-25T18:51:48.363Z,12.07
2022-08-25T18:54:39.126Z,11.57
2022-08-25T19:00:25.379Z,10.18
2022-08-25T19:03:17.460Z,13.00
2022-08-25T19:08:56.801Z,14.80
2022-08-25T19:11:47.300Z,12.55
2022-08-25T19:14:38.383Z,11.98
2022-08-25T19:17:27.594Z,13.95
2022-08-25T19:20:17.088Z,12.90
2022-08-25T19:23:07.707Z,11.95
2022-08-25T19:25:57.130Z,13.82
2022-08-25T19:28:49.275Z,12.60
2022-08-25T19:31:42.362Z,14.68
2022-08-25T19:34:41.944Z,14.25
2022-08-25T19:37:31.739Z,15.55
2022-08-25T19:40:22.934Z,15.43
2022-08-25T19:43:13.095Z,16.83
2022-08-25T19:46:02.698Z,25.33
2022-08-25T19:48:53.496Z,23.38
2022-08-25T19:51:46.138Z,20.45
2022-08-25T19:54:39.484Z,12.77
2022-08-25T19:57:42.286Z,15.93
2022-08-25T20:00:37.227Z,17.30
2022-08-25T20:03:26.476Z,15.02
2022-08-25T20:06:19.766Z,17.27
2022-08-25T20:09:36.071Z,14.18
2022-08-25T20:12:20.583Z,14.38
2022-08-25T20:15:10.871Z,16.60
2022-08-25T20:18:01.027Z,15.40
2022-08-25T20:20:52.581Z,15.32
2022-08-25T20:24:00.428Z,13.88
2022-08-25T20:26:49.594Z,15.07
2022-08-25T20:29:38.926Z,14.68
2022-08-25T20:32:28.948Z,11.55
2022-08-25T20:35:19.291Z,11.25
2022-08-25T20:38:08.615Z,15.80
2022-08-25T20:40:59.851Z,15.30
2022-08-25T20:43:49.121Z,19.05
2022-08-25T20:46:38.876Z,27.17
2022-08-25T20:49:29.693Z,19.92
2022-08-25T20:52:27.128Z,22.88
2022-08-25T20:55:18.839Z,26.10
2022-08-25T20:58:09.882Z,22.45
2022-08-25T21:00:59.087Z,18.27
2022-08-25T21:03:49.367Z,18.83
2022-08-25T21:06:39.098Z,17.83
2022-08-25T21:09:30.216Z,17.08
2022-08-25T21:12:20.996Z,13.33
2022-08-25T21:15:13.464Z,14.32
2022-08-25T21:18:07.530Z,14.85
2022-08-25T21:20:57.101Z,17.95
2022-08-25T21:23:49.466Z,18.60
2022-08-25T21:26:48.666Z,17.70
2022-08-25T21:29:38.404Z,17.23
2022-08-25T21:32:35.842Z,16.63
2022-08-25T21:35:27.827Z,15.25
2022-08-25T21:38:18.853Z,17.02
2022-08-25T21:41:12.291Z,17.50
2022-08-25T21:44:03.514Z,15.23
2022-08-25T21:46:53.974Z,14.43
2022-08-25T21:49:45.181Z,14.10
2022-08-25T21:52:35.268Z,14.18
2022-08-25T21:55:24.507Z,13.55
2022-08-25T21:58:13.798Z,13.23
2022-08-25T22:01:11.251Z,13.38
2022-08-25T22:04:01.155Z,13.93
2022-08-25T22:06:51.792Z,14.27
2022-08-25T22:09:41.474Z,15.13
2022-08-25T22:12:30.884Z,12.90
2022-08-25T22:15:20.604Z,15.27
2022-08-25T22:18:09.909Z,15.73
2022-08-25T22:20:59.264Z,15.52
2022-08-25T22:23:50.479Z,16.67
2022-08-25T22:26:41.531Z,16.65
2022-08-25T22:29:35.787Z,17.35
2022-08-25T22:32:25.553Z,15.50
2022-08-25T22:35:15.453Z,16.83
2022-08-25T22:38:12.291Z,15.75
2022-08-25T22:41:03.909Z,16.85
2022-08-25T22:43:54.694Z,15.85
2022-08-25T22:46:44.560Z,15.90
2022-08-25T22:49:35.373Z,14.73
2022-08-25T22:52:32.039Z,14.10
2022-08-25T22:55:23.033Z,17.80
2022-08-25T22:58:14.706Z,16.55
2022-08-25T23:01:03.929Z,16.10
2022-08-25T23:03:53.514Z,17.80
2022-08-25T23:06:42.916Z,13.90
2022-08-25T23:09:33.005Z,14.40
2022-08-25T23:12:23.616Z,15.85
2022-08-25T23:15:15.244Z,16.17
2022-08-25T23:18:04.402Z,15.98
2022-08-25T23:21:10.904Z,17.25
2022-08-25T23:24:01.046Z,15.77
2022-08-25T23:26:51.293Z,17.08
2022-08-25T23:29:43.865Z,15.02
2022-08-25T23:32:34.366Z,15.80
2022-08-25T23:35:23.507Z,16.75
2022-08-25T23:38:13.763Z,13.95
2022-08-25T23:41:07.924Z,15.80
2022-08-25T23:43:57.842Z,15.85
2022-08-25T23:46:48.614Z,14.98
2022-08-25T23:49:39.248Z,13.88
2022-08-25T23:52:28.481Z,13.00
2022-08-25T23:55:18.128Z,15.20
2022-08-25T23:58:07.476Z,17.98
